Longtown, Mississippi
Current Conditions -  °F | °C
As of 1:55 PM on Thursday 30 Oct 2014 (Local Time) from KUTA Reporting Station
Clear Clear  
Wind Chill: 68°   Ceiling: Unl
Heat Index: 68°   Visibility: 10mi
Dew Point: 37°   Wind: 3mph
Humidity: 33%   Direction: 220°SW
Pressure: 30.1"   Gusts: NA
Location:  34.6036°N, 90.124°W
Report Text: KUTA 301855Z AUTO 22003KT 10SM CLR 20/03 A3010 RMK AO2
Loading
Personal Weather Stations






























Interactive Weather Map
Tropical Storm Tracking
New forecast layout! Learn more

10-Day Weather Forecast

Advertisements
Track Severe Weather on mobile